Time,TemperatureF,DewpointF,PressureIn,WindDirection,WindDirectionDegrees,WindSpeedMPH,WindSpeedGustMPH,Humidity,HourlyPrecipIn,Conditions,Clouds,dailyrainin,SoftwareType,DateUTC
2013-07-06 00:04:00,78.6,75.4,30.15,NW,317,1.0,2.0,90,0.00,,,0.00,Wunderground v.1.15,2013-07-06 04:04:00,
2013-07-06 00:08:00,78.6,75.4,30.15,NNE,15,2.0,2.0,90,0.00,,,0.00,Wunderground v.1.15,2013-07-06 04:08:00,
2013-07-06 00:13:00,78.6,75.4,30.15,WNW,289,2.0,2.0,90,0.00,,,0.00,Wunderground v.1.15,2013-07-06 04:13:00,
2013-07-06 00:19:00,78.6,75.4,30.15,ESE,107,1.0,1.0,90,0.00,,,0.00,Wunderground v.1.15,2013-07-06 04:19:00,
2013-07-06 00:24:00,78.6,75.4,30.15,NNW,338,1.0,1.0,90,0.00,,,0.00,Wunderground v.1.15,2013-07-06 04:24:00,
2013-07-06 00:28:00,78.7,75.5,30.15,WNW,294,1.0,2.0,90,0.00,,,0.00,Wunderground v.1.15,2013-07-06 04:28:00,
2013-07-06 00:33:00,78.6,75.4,30.15,NE,36,1.0,2.0,90,0.00,,,0.00,Wunderground v.1.15,2013-07-06 04:33:00,
2013-07-06 00:38:00,78.7,75.5,30.15,NNW,343,1.0,1.0,90,0.00,,,0.00,Wunderground v.1.15,2013-07-06 04:38:00,
2013-07-06 00:43:00,78.6,75.4,30.15,North,6,2.0,2.0,90,0.00,,,0.00,Wunderground v.1.15,2013-07-06 04:43:00,
2013-07-06 00:48:00,78.5,75.3,30.15,WNW,302,1.0,3.0,90,0.00,,,0.00,Wunderground v.1.15,2013-07-06 04:48:00,
2013-07-06 00:53:00,78.5,75.3,30.15,West,279,1.0,3.0,90,0.00,,,0.00,Wunderground v.1.15,2013-07-06 04:53:00,
2013-07-06 00:58:00,78.5,75.3,30.15,WNW,283,1.0,1.0,90,0.00,,,0.00,Wunderground v.1.15,2013-07-06 04:58:00,
2013-07-06 01:04:00,78.3,75.1,30.15,WNW,288,0.0,1.0,90,0.00,,,0.00,Wunderground v.1.15,2013-07-06 05:04:00,
2013-07-06 01:08:00,78.2,75.4,30.15,NW,316,0.0,0.0,91,0.00,,,0.00,Wunderground v.1.15,2013-07-06 05:08:00,
2013-07-06 01:13:00,78.2,75.4,30.15,NNW,338,1.0,1.0,91,0.00,,,0.00,Wunderground v.1.15,2013-07-06 05:13:00,
2013-07-06 01:19:00,78.1,75.3,30.15,ESE,103,1.0,2.0,91,0.00,,,0.00,Wunderground v.1.15,2013-07-06 05:19:00,
2013-07-06 01:24:00,78.1,75.3,30.15,SSE,147,1.0,2.0,91,0.00,,,0.00,Wunderground v.1.15,2013-07-06 05:24:00,
2013-07-06 01:29:00,78.1,75.3,30.14,WNW,289,1.0,1.0,91,0.00,,,0.00,Wunderground v.1.15,2013-07-06 05:29:00,
2013-07-06 01:33:00,78.0,75.2,30.14,NW,316,1.0,1.0,91,0.00,,,0.00,Wunderground v.1.15,2013-07-06 05:33:00,
2013-07-06 01:38:00,78.0,75.2,30.14,NW,307,1.0,1.0,91,0.00,,,0.00,Wunderground v.1.15,2013-07-06 05:38:00,
2013-07-06 01:43:00,77.9,75.4,30.14,WNW,285,1.0,1.0,92,0.00,,,0.00,Wunderground v.1.15,2013-07-06 05:43:00,
2013-07-06 01:48:00,77.8,75.3,30.14,WNW,293,0.0,0.0,92,0.00,,,0.00,Wunderground v.1.15,2013-07-06 05:48:00,
2013-07-06 01:53:00,77.7,75.2,30.14,WNW,302,0.0,0.0,92,0.00,,,0.00,Wunderground v.1.15,2013-07-06 05:53:00,
2013-07-06 01:58:00,77.6,75.1,30.14,WNW,288,0.0,1.0,92,0.00,,,0.00,Wunderground v.1.15,2013-07-06 05:58:00,
2013-07-06 02:04:00,77.6,75.1,30.14,WNW,285,0.0,1.0,92,0.00,,,0.00,Wunderground v.1.15,2013-07-06 06:04:00,
2013-07-06 02:14:00,77.5,75.0,30.14,NNW,330,1.0,1.0,92,0.00,,,0.00,Wunderground v.1.15,2013-07-06 06:14:00,
2013-07-06 02:18:00,77.5,75.0,30.14,NNW,330,1.0,1.0,92,0.00,,,0.00,Wunderground v.1.15,2013-07-06 06:18:00,
2013-07-06 02:23:00,77.5,75.0,30.14,NW,311,0.0,1.0,92,0.00,,,0.00,Wunderground v.1.15,2013-07-06 06:23:00,
2013-07-06 02:28:00,77.4,75.2,30.14,WNW,300,0.0,0.0,93,0.00,,,0.00,Wunderground v.1.15,2013-07-06 06:28:00,
2013-07-06 02:33:00,77.4,75.2,30.13,NW,323,1.0,1.0,93,0.00,,,0.00,Wunderground v.1.15,2013-07-06 06:33:00,
2013-07-06 02:38:00,77.4,74.9,30.13,NW,312,1.0,1.0,92,0.00,,,0.00,Wunderground v.1.15,2013-07-06 06:38:00,
2013-07-06 02:43:00,77.4,75.2,30.13,NW,312,0.0,1.0,93,0.00,,,0.00,Wunderground v.1.15,2013-07-06 06:43:00,
2013-07-06 02:48:00,77.4,75.2,30.13,West,277,1.0,1.0,93,0.00,,,0.00,Wunderground v.1.15,2013-07-06 06:48:00,
2013-07-06 02:53:00,77.4,75.2,30.13,NW,314,1.0,1.0,93,0.00,,,0.00,Wunderground v.1.15,2013-07-06 06:53:00,
2013-07-06 02:58:00,77.4,75.2,30.13,WNW,291,0.0,1.0,93,0.00,,,0.00,Wunderground v.1.15,2013-07-06 06:58:00,
2013-07-06 03:04:00,77.4,75.2,30.13,West,278,0.0,3.0,93,0.00,,,0.00,Wunderground v.1.15,2013-07-06 07:04:00,
2013-07-06 03:08:00,77.4,75.2,30.13,WNW,293,0.0,0.0,93,0.00,,,0.00,Wunderground v.1.15,2013-07-06 07:08:00,
2013-07-06 03:13:00,77.3,75.1,30.13,WNW,293,0.0,0.0,93,0.00,,,0.00,Wunderground v.1.15,2013-07-06 07:13:00,
2013-07-06 03:18:00,77.2,75.0,30.13,NNW,337,0.0,0.0,93,0.00,,,0.00,Wunderground v.1.15,2013-07-06 07:18:00,
2013-07-06 03:23:00,77.1,74.9,30.13,NNW,338,0.0,0.0,93,0.00,,,0.00,Wunderground v.1.15,2013-07-06 07:23:00,
2013-07-06 03:28:00,77.1,74.9,30.12,NW,323,0.0,3.0,93,0.00,,,0.00,Wunderground v.1.15,2013-07-06 07:28:00,
2013-07-06 03:33:00,77.1,74.9,30.12,NW,309,1.0,3.0,93,0.00,,,0.00,Wunderground v.1.15,2013-07-06 07:33:00,
2013-07-06 03:38:00,77.1,74.9,30.12,WNW,303,1.0,1.0,93,0.00,,,0.00,Wunderground v.1.15,2013-07-06 07:38:00,
2013-07-06 03:43:00,77.2,75.0,30.12,West,273,1.0,1.0,93,0.00,,,0.00,Wunderground v.1.15,2013-07-06 07:43:00,
2013-07-06 03:49:00,77.1,74.9,30.12,West,273,1.0,1.0,93,0.00,,,0.00,Wunderground v.1.15,2013-07-06 07:49:00,
2013-07-06 03:54:00,77.0,74.8,30.12,West,273,0.0,1.0,93,0.00,,,0.00,Wunderground v.1.15,2013-07-06 07:54:00,
2013-07-06 03:59:00,77.0,74.8,30.12,WNW,297,1.0,1.0,93,0.00,,,0.00,Wunderground v.1.15,2013-07-06 07:59:00,
2013-07-06 04:08:00,77.0,74.8,30.12,WNW,297,1.0,1.0,93,0.00,,,0.00,Wunderground v.1.15,2013-07-06 08:08:00,
2013-07-06 04:13:00,76.9,74.7,30.12,WNW,302,0.0,1.0,93,0.00,,,0.00,Wunderground v.1.15,2013-07-06 08:13:00,
2013-07-06 04:18:00,77.0,75.1,30.12,NW,321,0.0,0.0,94,0.00,,,0.00,Wunderground v.1.15,2013-07-06 08:18:00,
2013-07-06 04:23:00,76.9,75.0,30.12,NNW,347,0.0,0.0,94,0.00,,,0.00,Wunderground v.1.15,2013-07-06 08:23:00,
2013-07-06 04:28:00,76.9,75.0,30.12,WNW,302,0.0,0.0,94,0.00,,,0.00,Wunderground v.1.15,2013-07-06 08:28:00,
2013-07-06 04:34:00,77.0,75.1,30.12,WNW,283,1.0,1.0,94,0.00,,,0.00,Wunderground v.1.15,2013-07-06 08:34:00,
2013-07-06 04:38:00,76.9,75.0,30.12,NW,314,1.0,2.0,94,0.00,,,0.00,Wunderground v.1.15,2013-07-06 08:38:00,
2013-07-06 04:43:00,76.8,74.9,30.12,NW,309,1.0,2.0,94,0.00,,,0.00,Wunderground v.1.15,2013-07-06 08:43:00,
2013-07-06 04:49:00,76.7,74.8,30.12,NW,309,1.0,1.0,94,0.00,,,0.00,Wunderground v.1.15,2013-07-06 08:49:00,
2013-07-06 04:54:00,76.6,74.7,30.12,NW,309,0.0,1.0,94,0.00,,,0.00,Wunderground v.1.15,2013-07-06 08:54:00,
2013-07-06 04:59:00,76.4,74.5,30.12,NW,309,0.0,0.0,94,0.00,,,0.00,Wunderground v.1.15,2013-07-06 08:59:00,
2013-07-06 05:04:00,76.4,74.9,30.12,NNW,335,0.0,0.0,95,0.00,,,0.00,Wunderground v.1.15,2013-07-06 09:04:00,
2013-07-06 05:08:00,76.3,74.8,30.11,NNW,334,0.0,1.0,95,0.00,,,0.00,Wunderground v.1.15,2013-07-06 09:08:00,
2013-07-06 05:13:00,76.3,74.8,30.11,WNW,283,1.0,2.0,95,0.00,,,0.00,Wunderground v.1.15,2013-07-06 09:13:00,
2013-07-06 05:18:00,76.4,74.9,30.11,WNW,288,1.0,1.0,95,0.00,,,0.00,Wunderground v.1.15,2013-07-06 09:18:00,
2013-07-06 05:23:00,76.4,74.9,30.11,NW,309,1.0,2.0,95,0.00,,,0.00,Wunderground v.1.15,2013-07-06 09:23:00,
2013-07-06 05:28:00,76.4,74.9,30.11,North,354,1.0,1.0,95,0.00,,,0.00,Wunderground v.1.15,2013-07-06 09:28:00,
2013-07-06 05:34:00,76.4,74.9,30.11,NW,307,1.0,1.0,95,0.00,,,0.00,Wunderground v.1.15,2013-07-06 09:34:00,
2013-07-06 05:39:00,76.4,74.9,30.11,NW,318,1.0,1.0,95,0.00,,,0.00,Wunderground v.1.15,2013-07-06 09:39:00,
2013-07-06 05:44:00,76.4,74.9,30.11,WNW,299,1.0,1.0,95,0.00,,,0.00,Wunderground v.1.15,2013-07-06 09:44:00,
2013-07-06 05:53:00,76.4,74.9,30.11,NW,312,1.0,2.0,95,0.00,,,0.00,Wunderground v.1.15,2013-07-06 09:53:00,
2013-07-06 05:58:00,76.4,75.2,30.11,NW,305,1.0,2.0,96,0.00,,,0.00,Wunderground v.1.15,2013-07-06 09:58:00,
2013-07-06 06:04:00,76.4,75.2,30.12,NNW,328,1.0,2.0,96,0.00,,,0.00,Wunderground v.1.15,2013-07-06 10:04:00,
2013-07-06 06:08:00,76.4,75.2,30.11,WNW,294,1.0,2.0,96,0.00,,,0.00,Wunderground v.1.15,2013-07-06 10:08:00,
2013-07-06 06:13:00,76.4,75.2,30.11,SSE,166,1.0,2.0,96,0.00,,,0.00,Wunderground v.1.15,2013-07-06 10:13:00,
2013-07-06 06:19:00,76.4,75.2,30.11,WNW,297,1.0,1.0,96,0.00,,,0.00,Wunderground v.1.15,2013-07-06 10:19:00,
2013-07-06 06:24:00,76.5,75.3,30.11,WNW,283,2.0,2.0,96,0.00,,,0.00,Wunderground v.1.15,2013-07-06 10:24:00,
2013-07-06 06:29:00,76.5,75.0,30.12,NNW,328,2.0,2.0,95,0.00,,,0.00,Wunderground v.1.15,2013-07-06 10:29:00,
2013-07-06 06:33:00,76.6,75.1,30.12,NW,323,1.0,2.0,95,0.00,,,0.00,Wunderground v.1.15,2013-07-06 10:33:00,
2013-07-06 06:38:00,76.5,75.0,30.12,NW,323,1.0,3.0,95,0.00,,,0.00,Wunderground v.1.15,2013-07-06 10:38:00,
2013-07-06 06:43:00,76.6,75.1,30.12,NNW,330,1.0,3.0,95,0.00,,,0.00,Wunderground v.1.15,2013-07-06 10:43:00,
2013-07-06 06:48:00,76.5,75.0,30.12,NW,305,1.0,1.0,95,0.00,,,0.00,Wunderground v.1.15,2013-07-06 10:48:00,
2013-07-06 06:53:00,76.5,75.3,30.12,ENE,64,0.0,1.0,96,0.00,,,0.00,Wunderground v.1.15,2013-07-06 10:53:00,
2013-07-06 06:58:00,76.6,75.4,30.12,NW,305,1.0,1.0,96,0.00,,,0.00,Wunderground v.1.15,2013-07-06 10:58:00,
2013-07-06 07:04:00,76.7,75.5,30.12,NW,323,1.0,1.0,96,0.00,,,0.00,Wunderground v.1.15,2013-07-06 11:04:00,
2013-07-06 07:08:00,76.8,75.6,30.12,ENE,77,1.0,1.0,96,0.00,,,0.00,Wunderground v.1.15,2013-07-06 11:08:00,
2013-07-06 07:13:00,76.9,75.4,30.12,WNW,297,2.0,2.0,95,0.00,,,0.00,Wunderground v.1.15,2013-07-06 11:13:00,
2013-07-06 07:19:00,77.0,75.5,30.12,NW,309,1.0,1.0,95,0.00,,,0.00,Wunderground v.1.15,2013-07-06 11:19:00,
2013-07-06 07:24:00,77.1,75.6,30.12,NNW,340,1.0,1.0,95,0.00,,,0.00,Wunderground v.1.15,2013-07-06 11:24:00,
2013-07-06 07:33:00,77.4,75.9,30.13,WNW,301,2.0,2.0,95,0.00,,,0.00,Wunderground v.1.15,2013-07-06 11:33:00,
2013-07-06 07:38:00,77.5,75.6,30.13,WNW,303,2.0,2.0,94,0.00,,,0.00,Wunderground v.1.15,2013-07-06 11:38:00,
2013-07-06 07:43:00,77.7,75.8,30.13,NW,321,2.0,2.0,94,0.00,,,0.00,Wunderground v.1.15,2013-07-06 11:43:00,
2013-07-06 07:48:00,77.9,76.0,30.13,NNW,330,1.0,1.0,94,0.00,,,0.00,Wunderground v.1.15,2013-07-06 11:48:00,
2013-07-06 07:53:00,78.1,76.2,30.13,WNW,302,1.0,2.0,94,0.00,,,0.00,Wunderground v.1.15,2013-07-06 11:53:00,
2013-07-06 07:58:00,78.4,76.2,30.13,WNW,293,1.0,1.0,93,0.00,,,0.00,Wunderground v.1.15,2013-07-06 11:58:00,
2013-07-06 08:04:00,78.8,76.3,30.13,NW,313,1.0,2.0,92,0.00,,,0.00,Wunderground v.1.15,2013-07-06 12:04:00,
2013-07-06 08:08:00,79.0,76.1,30.13,NNW,337,2.0,2.0,91,0.00,,,0.00,Wunderground v.1.15,2013-07-06 12:08:00,
2013-07-06 08:13:00,79.1,76.2,30.14,WNW,293,2.0,2.0,91,0.00,,,0.00,Wunderground v.1.15,2013-07-06 12:13:00,
2013-07-06 08:23:00,79.7,76.5,30.14,WNW,285,2.0,2.0,90,0.00,,,0.00,Wunderground v.1.15,2013-07-06 12:23:00,
2013-07-06 08:28:00,80.0,76.5,30.14,WNW,293,2.0,2.0,89,0.00,,,0.00,Wunderground v.1.15,2013-07-06 12:28:00,
2013-07-06 08:33:00,80.5,77.0,30.14,NW,314,1.0,2.0,89,0.00,,,0.00,Wunderground v.1.15,2013-07-06 12:33:00,
2013-07-06 08:38:00,80.7,76.8,30.14,West,260,1.0,1.0,88,0.00,,,0.00,Wunderground v.1.15,2013-07-06 12:38:00,
2013-07-06 08:48:00,81.4,77.2,30.14,West,276,2.0,6.0,87,0.00,,,0.00,Wunderground v.1.15,2013-07-06 12:48:00,
2013-07-06 08:53:00,81.7,76.4,30.14,WNW,289,2.0,6.0,84,0.00,,,0.00,Wunderground v.1.15,2013-07-06 12:53:00,
2013-07-06 08:58:00,82.2,76.9,30.14,NW,316,2.0,2.0,84,0.00,,,0.00,Wunderground v.1.15,2013-07-06 12:58:00,
2013-07-06 09:04:00,82.6,76.5,30.15,North,352,2.0,3.0,82,0.00,,,0.00,Wunderground v.1.15,2013-07-06 13:04:00,
2013-07-06 09:08:00,82.7,76.6,30.15,West,280,2.0,2.0,82,0.00,,,0.00,Wunderground v.1.15,2013-07-06 13:08:00,
2013-07-06 09:13:00,82.9,76.8,30.15,NW,305,3.0,4.0,82,0.00,,,0.00,Wunderground v.1.15,2013-07-06 13:13:00,
2013-07-06 09:18:00,83.1,76.7,30.14,NE,55,3.0,3.0,81,0.00,,,0.00,Wunderground v.1.15,2013-07-06 13:18:00,
2013-07-06 09:23:00,83.3,76.5,30.14,WNW,295,3.0,4.0,80,0.00,,,0.00,Wunderground v.1.15,2013-07-06 13:23:00,
2013-07-06 09:28:00,83.7,76.9,30.14,North,10,3.0,3.0,80,0.00,,,0.00,Wunderground v.1.15,2013-07-06 13:28:00,
2013-07-06 09:33:00,84.0,76.8,30.14,NW,315,2.0,3.0,79,0.00,,,0.00,Wunderground v.1.15,2013-07-06 13:33:00,
2013-07-06 09:38:00,84.3,77.5,30.15,East,85,2.0,2.0,80,0.00,,,0.00,Wunderground v.1.15,2013-07-06 13:38:00,
2013-07-06 09:43:00,84.5,76.9,30.15,NW,311,2.0,3.0,78,0.00,,,0.00,Wunderground v.1.15,2013-07-06 13:43:00,
2013-07-06 09:49:00,84.0,76.8,30.15,NE,36,3.0,3.0,79,0.00,,,0.00,Wunderground v.1.15,2013-07-06 13:49:00,
2013-07-06 09:53:00,83.9,76.3,30.15,WNW,285,4.0,4.0,78,0.00,,,0.00,Wunderground v.1.15,2013-07-06 13:53:00,
2013-07-06 09:58:00,84.1,76.5,30.15,WNW,285,4.0,4.0,78,0.00,,,0.00,Wunderground v.1.15,2013-07-06 13:58:00,
2013-07-06 10:03:00,85.0,77.4,30.14,NW,304,3.0,4.0,78,0.00,,,0.00,Wunderground v.1.15,2013-07-06 14:03:00,
2013-07-06 10:08:00,85.2,76.8,30.15,WNW,299,3.0,3.0,76,0.00,,,0.00,Wunderground v.1.15,2013-07-06 14:08:00,
2013-07-06 10:13:00,85.4,77.4,30.15,NE,50,3.0,3.0,77,0.00,,,0.00,Wunderground v.1.15,2013-07-06 14:13:00,
2013-07-06 10:18:00,85.5,76.3,30.15,NW,319,3.0,3.0,74,0.00,,,0.00,Wunderground v.1.15,2013-07-06 14:18:00,
2013-07-06 10:23:00,85.4,76.6,30.15,NW,305,3.0,4.0,75,0.00,,,0.00,Wunderground v.1.15,2013-07-06 14:23:00,
2013-07-06 10:28:00,85.8,77.4,30.15,NW,309,2.0,3.0,76,0.00,,,0.00,Wunderground v.1.15,2013-07-06 14:28:00,
2013-07-06 10:33:00,86.0,76.7,30.15,NNE,22,2.0,3.0,74,0.00,,,0.00,Wunderground v.1.15,2013-07-06 14:33:00,
2013-07-06 10:38:00,85.7,76.5,30.15,NW,311,2.0,4.0,74,0.00,,,0.00,Wunderground v.1.15,2013-07-06 14:38:00,
2013-07-06 10:43:00,84.9,76.1,30.15,WNW,298,2.0,4.0,75,0.00,,,0.00,Wunderground v.1.15,2013-07-06 14:43:00,
2013-07-06 10:49:00,85.0,76.6,30.15,WSW,246,2.0,2.0,76,0.00,,,0.00,Wunderground v.1.15,2013-07-06 14:49:00,
2013-07-06 10:53:00,85.7,76.5,30.15,NNW,328,2.0,4.0,74,0.00,,,0.00,Wunderground v.1.15,2013-07-06 14:53:00,
2013-07-06 10:58:00,86.0,75.5,30.15,WNW,302,3.0,3.0,71,0.00,,,0.00,Wunderground v.1.15,2013-07-06 14:58:00,
2013-07-06 11:04:00,86.0,75.5,30.15,NW,317,5.0,6.0,71,0.00,,,0.00,Wunderground v.1.15,2013-07-06 15:04:00,
2013-07-06 11:08:00,86.3,75.8,30.15,NW,312,4.0,7.0,71,0.00,,,0.00,Wunderground v.1.15,2013-07-06 15:08:00,
2013-07-06 11:13:00,86.6,75.6,30.15,WNW,302,4.0,7.0,70,0.00,,,0.00,Wunderground v.1.15,2013-07-06 15:13:00,
2013-07-06 11:18:00,86.7,76.2,30.15,East,90,4.0,4.0,71,0.00,,,0.00,Wunderground v.1.15,2013-07-06 15:18:00,
2013-07-06 11:23:00,87.0,76.9,30.15,WNW,294,3.0,4.0,72,0.00,,,0.00,Wunderground v.1.15,2013-07-06 15:23:00,
2013-07-06 11:28:00,87.5,77.4,30.15,NW,304,2.0,2.0,72,0.00,,,0.00,Wunderground v.1.15,2013-07-06 15:28:00,
2013-07-06 11:34:00,87.5,76.1,30.15,NNE,16,2.0,2.0,69,0.00,,,0.00,Wunderground v.1.15,2013-07-06 15:34:00,
2013-07-06 11:39:00,86.9,75.9,30.15,West,268,2.0,3.0,70,0.00,,,0.00,Wunderground v.1.15,2013-07-06 15:39:00,
2013-07-06 11:44:00,87.1,76.1,30.15,NW,312,2.0,4.0,70,0.00,,,0.00,Wunderground v.1.15,2013-07-06 15:44:00,
2013-07-06 11:48:00,86.9,76.8,30.15,NW,312,2.0,2.0,72,0.00,,,0.00,Wunderground v.1.15,2013-07-06 15:48:00,
2013-07-06 11:53:00,87.2,76.2,30.15,North,9,3.0,3.0,70,0.00,,,0.00,Wunderground v.1.15,2013-07-06 15:53:00,
2013-07-06 11:58:00,87.4,76.8,30.15,NNW,336,3.0,3.0,71,0.00,,,0.00,Wunderground v.1.15,2013-07-06 15:58:00,
2013-07-06 12:08:00,87.5,76.5,30.15,NW,314,2.0,2.0,70,0.00,,,0.00,Wunderground v.1.15,2013-07-06 16:08:00,
2013-07-06 12:13:00,86.9,75.9,30.15,WNW,286,3.0,5.0,70,0.00,,,0.00,Wunderground v.1.15,2013-07-06 16:13:00,
2013-07-06 12:29:00,88.1,76.2,30.14,NE,47,4.0,4.0,68,0.00,,,0.00,Wunderground v.1.15,2013-07-06 16:29:00,
2013-07-06 12:38:00,88.2,76.7,30.14,NNW,348,4.0,8.0,69,0.00,,,0.00,Wunderground v.1.15,2013-07-06 16:38:00,
2013-07-06 12:53:00,88.6,76.2,30.14,WNW,286,4.0,5.0,67,0.00,,,0.00,Wunderground v.1.15,2013-07-06 16:53:00,
2013-07-06 12:58:00,88.0,76.5,30.14,NE,53,3.0,3.0,69,0.00,,,0.00,Wunderground v.1.15,2013-07-06 16:58:00,
2013-07-06 13:04:00,87.5,76.5,30.14,WNW,287,3.0,4.0,70,0.00,,,0.00,Wunderground v.1.15,2013-07-06 17:04:00,
2013-07-06 13:09:00,87.0,76.5,30.14,WSW,252,4.0,4.0,71,0.00,,,0.00,Wunderground v.1.15,2013-07-06 17:09:00,
2013-07-06 13:13:00,86.5,77.2,30.14,West,273,4.0,4.0,74,0.00,,,0.01,Wunderground v.1.15,2013-07-06 17:13:00,
2013-07-06 13:18:00,84.6,76.6,30.14,WSW,257,3.0,3.0,77,0.15,,,0.02,Wunderground v.1.15,2013-07-06 17:18:00,
2013-07-06 13:24:00,83.9,77.4,30.14,WNW,302,1.0,3.0,81,0.07,,,0.02,Wunderground v.1.15,2013-07-06 17:24:00,
2013-07-06 13:29:00,83.9,78.2,30.13,NNW,330,1.0,1.0,83,0.04,,,0.02,Wunderground v.1.15,2013-07-06 17:29:00,
2013-07-06 13:38:00,84.6,77.7,30.13,WNW,294,1.0,1.0,80,0.00,,,0.02,Wunderground v.1.15,2013-07-06 17:38:00,
2013-07-06 13:44:00,85.9,78.2,30.13,NE,46,2.0,2.0,78,0.00,,,0.02,Wunderground v.1.15,2013-07-06 17:44:00,
2013-07-06 14:04:00,88.4,77.8,30.12,NNW,343,4.0,4.0,71,0.00,,,0.02,Wunderground v.1.15,2013-07-06 18:04:00,
2013-07-06 14:28:00,86.4,77.5,30.12,WNW,285,3.0,5.0,75,0.00,,,0.02,Wunderground v.1.15,2013-07-06 18:28:00,
2013-07-06 14:44:00,88.9,77.8,30.11,South,184,3.0,3.0,70,0.00,,,0.02,Wunderground v.1.15,2013-07-06 18:44:00,
2013-07-06 14:53:00,88.7,76.3,30.11,WNW,302,4.0,6.0,67,0.00,,,0.02,Wunderground v.1.15,2013-07-06 18:53:00,
2013-07-06 15:04:00,88.4,76.0,30.10,WNW,288,5.0,5.0,67,0.00,,,0.02,Wunderground v.1.15,2013-07-06 19:04:00,
2013-07-06 15:08:00,88.3,76.4,30.10,WNW,286,5.0,5.0,68,0.00,,,0.02,Wunderground v.1.15,2013-07-06 19:08:00,
2013-07-06 15:13:00,88.5,77.0,30.10,WNW,283,5.0,5.0,69,0.00,,,0.02,Wunderground v.1.15,2013-07-06 19:13:00,
2013-07-06 15:18:00,88.8,76.4,30.10,NW,304,4.0,4.0,67,0.00,,,0.02,Wunderground v.1.15,2013-07-06 19:18:00,
2013-07-06 15:23:00,89.2,76.4,30.10,NW,315,4.0,9.0,66,0.00,,,0.02,Wunderground v.1.15,2013-07-06 19:23:00,
2013-07-06 15:28:00,89.0,77.1,30.10,NW,304,4.0,4.0,68,0.00,,,0.02,Wunderground v.1.15,2013-07-06 19:28:00,
2013-07-06 15:34:00,89.2,76.8,30.10,NNE,12,4.0,5.0,67,0.00,,,0.02,Wunderground v.1.15,2013-07-06 19:34:00,
2013-07-06 15:39:00,89.2,77.7,30.10,NW,308,4.0,7.0,69,0.00,,,0.02,Wunderground v.1.15,2013-07-06 19:39:00,
2013-07-06 15:43:00,88.9,77.0,30.10,NW,311,4.0,7.0,68,0.00,,,0.02,Wunderground v.1.15,2013-07-06 19:43:00,
2013-07-06 15:53:00,89.0,77.5,30.10,NW,326,4.0,9.0,69,0.00,,,0.02,Wunderground v.1.15,2013-07-06 19:53:00,
2013-07-06 16:04:00,89.2,77.3,30.10,WNW,283,4.0,6.0,68,0.00,,,0.02,Wunderground v.1.15,2013-07-06 20:04:00,
2013-07-06 16:08:00,89.2,77.3,30.10,NW,316,4.0,4.0,68,0.00,,,0.02,Wunderground v.1.15,2013-07-06 20:08:00,
2013-07-06 16:13:00,89.2,77.3,30.10,WNW,295,4.0,4.0,68,0.00,,,0.02,Wunderground v.1.15,2013-07-06 20:13:00,
2013-07-06 16:19:00,89.0,77.1,30.10,North,352,4.0,4.0,68,0.00,,,0.02,Wunderground v.1.15,2013-07-06 20:19:00,
2013-07-06 16:24:00,88.5,77.5,30.10,NNW,342,4.0,4.0,70,0.00,,,0.02,Wunderground v.1.15,2013-07-06 20:24:00,
2013-07-06 16:38:00,88.1,76.2,30.09,WNW,296,4.0,11.0,68,0.00,,,0.02,Wunderground v.1.15,2013-07-06 20:38:00,
2013-07-06 16:48:00,88.3,75.9,30.09,NW,309,4.0,4.0,67,0.00,,,0.02,Wunderground v.1.15,2013-07-06 20:48:00,
2013-07-06 16:53:00,88.4,76.5,30.09,East,94,5.0,5.0,68,0.00,,,0.02,Wunderground v.1.15,2013-07-06 20:53:00,
2013-07-06 16:58:00,88.5,77.0,30.09,NW,304,4.0,6.0,69,0.00,,,0.02,Wunderground v.1.15,2013-07-06 20:58:00,
2013-07-06 17:04:00,88.7,77.2,30.09,North,350,3.0,6.0,69,0.00,,,0.02,Wunderground v.1.15,2013-07-06 21:04:00,
2013-07-06 17:08:00,88.5,77.0,30.09,NNW,336,4.0,5.0,69,0.00,,,0.02,Wunderground v.1.15,2013-07-06 21:08:00,
2013-07-06 17:13:00,88.0,77.4,30.09,NNW,333,4.0,5.0,71,0.00,,,0.02,Wunderground v.1.15,2013-07-06 21:13:00,
2013-07-06 17:19:00,87.5,77.4,30.09,WNW,288,4.0,5.0,72,0.00,,,0.02,Wunderground v.1.15,2013-07-06 21:19:00,
2013-07-06 17:23:00,87.0,76.9,30.09,South,191,5.0,6.0,72,0.00,,,0.02,Wunderground v.1.15,2013-07-06 21:23:00,
2013-07-06 17:29:00,86.7,77.0,30.09,NW,306,5.0,5.0,73,0.00,,,0.02,Wunderground v.1.15,2013-07-06 21:29:00,
2013-07-06 17:34:00,87.0,76.9,30.09,WNW,287,4.0,5.0,72,0.00,,,0.02,Wunderground v.1.15,2013-07-06 21:34:00,
2013-07-06 17:39:00,86.8,76.7,30.09,NNW,327,4.0,7.0,72,0.00,,,0.02,Wunderground v.1.15,2013-07-06 21:39:00,
2013-07-06 17:44:00,87.0,76.9,30.08,WNW,290,4.0,10.0,72,0.00,,,0.02,Wunderground v.1.15,2013-07-06 21:44:00,
2013-07-06 17:58:00,87.3,76.7,30.08,WNW,284,3.0,3.0,71,0.00,,,0.02,Wunderground v.1.15,2013-07-06 21:58:00,
2013-07-06 18:04:00,87.1,76.1,30.08,NW,321,4.0,4.0,70,0.00,,,0.02,Wunderground v.1.15,2013-07-06 22:04:00,
2013-07-06 18:08:00,87.0,76.5,30.08,WNW,298,4.0,5.0,71,0.00,,,0.02,Wunderground v.1.15,2013-07-06 22:08:00,
2013-07-06 18:14:00,87.0,76.5,30.08,West,268,4.0,5.0,71,0.00,,,0.02,Wunderground v.1.15,2013-07-06 22:14:00,
2013-07-06 18:24:00,86.8,75.8,30.08,WNW,282,4.0,6.0,70,0.00,,,0.02,Wunderground v.1.15,2013-07-06 22:24:00,
2013-07-06 18:29:00,86.5,76.4,30.08,NW,317,5.0,6.0,72,0.00,,,0.02,Wunderground v.1.15,2013-07-06 22:29:00,
2013-07-06 18:33:00,86.5,76.4,30.08,NW,311,4.0,6.0,72,0.00,,,0.02,Wunderground v.1.15,2013-07-06 22:33:00,
2013-07-06 18:38:00,86.7,76.6,30.08,WSW,253,3.0,5.0,72,0.00,,,0.02,Wunderground v.1.15,2013-07-06 22:38:00,
2013-07-06 18:43:00,87.0,76.9,30.08,NW,307,3.0,5.0,72,0.00,,,0.02,Wunderground v.1.15,2013-07-06 22:43:00,
2013-07-06 19:04:00,86.0,76.7,30.07,NW,314,4.0,4.0,74,0.00,,,0.02,Wunderground v.1.15,2013-07-06 23:04:00,
2013-07-06 19:09:00,85.6,76.4,30.08,WSW,257,4.0,4.0,74,0.00,,,0.02,Wunderground v.1.15,2013-07-06 23:09:00,
2013-07-06 19:18:00,85.2,76.4,30.08,WNW,302,3.0,6.0,75,0.00,,,0.02,Wunderground v.1.15,2013-07-06 23:18:00,
2013-07-06 19:23:00,85.1,76.3,30.08,NW,316,3.0,6.0,75,0.00,,,0.02,Wunderground v.1.15,2013-07-06 23:23:00,
2013-07-06 19:29:00,84.6,75.8,30.08,West,270,4.0,4.0,75,0.00,,,0.02,Wunderground v.1.15,2013-07-06 23:29:00,
2013-07-06 19:38:00,83.8,75.4,30.09,WNW,295,4.0,5.0,76,0.00,,,0.02,Wunderground v.1.15,2013-07-06 23:38:00,
2013-07-06 19:43:00,83.6,75.6,30.08,NNW,338,4.0,5.0,77,0.00,,,0.02,Wunderground v.1.15,2013-07-06 23:43:00,
2013-07-06 20:04:00,83.0,75.8,30.09,NNW,330,3.0,5.0,79,0.00,,,0.02,Wunderground v.1.15,2013-07-07 00:04:00,
2013-07-06 20:23:00,82.5,75.7,30.09,North,356,3.0,5.0,80,0.00,,,0.02,Wunderground v.1.15,2013-07-07 00:23:00,
2013-07-06 20:28:00,82.4,75.6,30.09,NE,46,2.0,2.0,80,0.00,,,0.02,Wunderground v.1.15,2013-07-07 00:28:00,
2013-07-06 20:33:00,82.3,75.5,30.10,NNE,15,2.0,2.0,80,0.00,,,0.02,Wunderground v.1.15,2013-07-07 00:33:00,
2013-07-06 20:39:00,82.1,75.7,30.10,West,264,3.0,3.0,81,0.00,,,0.02,Wunderground v.1.15,2013-07-07 00:39:00,
2013-07-06 20:44:00,81.9,75.5,30.10,West,280,3.0,4.0,81,0.00,,,0.02,Wunderground v.1.15,2013-07-07 00:44:00,
2013-07-06 20:54:00,81.7,75.7,30.10,NW,318,3.0,3.0,82,0.00,,,0.02,Wunderground v.1.15,2013-07-07 00:54:00,
2013-07-06 21:08:00,81.4,75.7,30.11,NW,313,2.0,2.0,83,0.00,,,0.02,Wunderground v.1.15,2013-07-07 01:08:00,
2013-07-06 21:13:00,81.3,76.0,30.11,West,274,2.0,2.0,84,0.00,,,0.02,Wunderground v.1.15,2013-07-07 01:13:00,
2013-07-06 21:18:00,81.1,75.8,30.11,NE,34,2.0,2.0,84,0.00,,,0.02,Wunderground v.1.15,2013-07-07 01:18:00,
2013-07-06 21:39:00,80.8,75.9,30.12,NNW,330,2.0,2.0,85,0.00,,,0.02,Wunderground v.1.15,2013-07-07 01:39:00,
2013-07-06 21:44:00,80.7,75.8,30.12,NW,317,2.0,2.0,85,0.00,,,0.02,Wunderground v.1.15,2013-07-07 01:44:00,
2013-07-06 21:53:00,80.6,75.7,30.12,NNE,33,2.0,3.0,85,0.00,,,0.02,Wunderground v.1.15,2013-07-07 01:53:00,
2013-07-06 21:58:00,80.5,75.6,30.13,NNW,338,2.0,2.0,85,0.00,,,0.02,Wunderground v.1.15,2013-07-07 01:58:00,
2013-07-06 22:04:00,80.5,75.6,30.13,NE,43,3.0,3.0,85,0.00,,,0.02,Wunderground v.1.15,2013-07-07 02:04:00,
2013-07-06 22:14:00,80.4,75.8,30.13,NNW,343,2.0,3.0,86,0.00,,,0.02,Wunderground v.1.15,2013-07-07 02:14:00,
2013-07-06 22:23:00,80.2,76.0,30.13,NNW,340,2.0,2.0,87,0.00,,,0.02,Wunderground v.1.15,2013-07-07 02:23:00,
2013-07-06 22:28:00,80.1,75.9,30.13,NNW,343,2.0,2.0,87,0.00,,,0.02,Wunderground v.1.15,2013-07-07 02:28:00,
2013-07-06 22:33:00,80.1,75.9,30.13,NNW,338,1.0,3.0,87,0.00,,,0.02,Wunderground v.1.15,2013-07-07 02:33:00,
2013-07-06 22:38:00,80.1,75.9,30.13,NW,321,2.0,2.0,87,0.00,,,0.02,Wunderground v.1.15,2013-07-07 02:38:00,
2013-07-06 22:43:00,80.0,75.8,30.13,NW,307,3.0,7.0,87,0.00,,,0.02,Wunderground v.1.15,2013-07-07 02:43:00,
2013-07-06 22:49:00,80.0,75.8,30.13,WNW,285,3.0,3.0,87,0.00,,,0.02,Wunderground v.1.15,2013-07-07 02:49:00,
2013-07-06 22:54:00,80.0,75.8,30.14,WNW,289,3.0,3.0,87,0.00,,,0.02,Wunderground v.1.15,2013-07-07 02:54:00,
2013-07-06 23:08:00,79.9,76.0,30.14,WNW,290,1.0,1.0,88,0.00,,,0.02,Wunderground v.1.15,2013-07-07 03:08:00,
2013-07-06 23:18:00,79.8,75.9,30.14,West,278,3.0,3.0,88,0.00,,,0.02,Wunderground v.1.15,2013-07-07 03:18:00,
2013-07-06 23:23:00,79.8,75.9,30.14,WNW,301,2.0,7.0,88,0.00,,,0.02,Wunderground v.1.15,2013-07-07 03:23:00,
2013-07-06 23:28:00,79.7,75.8,30.14,WNW,299,2.0,2.0,88,0.00,,,0.02,Wunderground v.1.15,2013-07-07 03:28:00,
2013-07-06 23:34:00,79.6,76.1,30.14,West,280,1.0,2.0,89,0.00,,,0.02,Wunderground v.1.15,2013-07-07 03:34:00,
2013-07-06 23:39:00,79.5,76.0,30.14,NNW,340,0.0,2.0,89,0.00,,,0.02,Wunderground v.1.15,2013-07-07 03:39:00,
2013-07-06 23:44:00,79.4,75.9,30.14,NNW,348,1.0,2.0,89,0.00,,,0.02,Wunderground v.1.15,2013-07-07 03:44:00,
2013-07-06 23:53:00,79.2,76.0,30.14,West,269,0.0,1.0,90,0.00,,,0.02,Wunderground v.1.15,2013-07-07 03:53:00,
2013-07-06 23:58:00,79.1,75.9,30.14,WNW,285,0.0,1.0,90,0.00,,,0.00,Wunderground v.1.15,2013-07-07 03:58:00,